aviador You're here:

KTPA Decoded Metar

TAMPA in FL, USA
Report Time2017-12-15 18:53:00
UTC Time2017-12-15 19:52:03
Flight Rules vfr VFR
Wind280° at 07 kt
W.Decomp.*RWY 28: 7.0 kt HW 0.6 kt RCW
RWY 01: 0.6 kt HW 7 kt LCW
W.Rank280° ranks 35
Current wind is below 280° avg. (8.6)
Visibility9999 m
Phenomena:N/A
Clouds:Scattered 050 Hf
Scattered 070 Hf
Expected CloudBase > 4,400 ft AGL from Temp-Dew spread
CeilingNone
Temp24°C (ISA +9)
Dew Point13°C (50% RH)
AAT22.4°C
QNH1018 hPa
Density Alt1,122 ft
Elevation36 ft
Report Wrong Elevation
Raw Report
METAR KTPA 151853Z 28007KT 10SM SCT050 SCT070 24/13 A3007 RMK AO2 SLP183
T02390128=

Extra information for KTPA:More info

Metar Taf Metar & Taf Last 4 Metars F.Rules Stats Wind Profile Meteogram Temp Stats Airport Information Weather charts Add Link Nearby VenuesMetar ALERT Operation Metar Decoded Social comments

AIRNAV info for KTPA